createdAt,value
2023-02-23T00:03:14.331Z,12.18
2023-02-23T00:08:17.720Z,11.95
2023-02-23T00:13:21.014Z,11.75
2023-02-23T00:18:30.231Z,11.05
2023-02-23T00:23:33.438Z,10.10
2023-02-23T00:28:36.707Z,9.88
2023-02-23T00:33:42.658Z,10.02
2023-02-23T00:38:46.254Z,9.63
2023-02-23T00:43:49.662Z,8.80
2023-02-23T00:48:57.556Z,9.02
2023-02-23T00:54:02.451Z,9.23
2023-02-23T00:59:13.674Z,8.73
2023-02-23T01:04:19.285Z,8.45
2023-02-23T01:09:28.409Z,9.82
2023-02-23T01:14:32.669Z,8.68
2023-02-23T01:19:41.524Z,8.70
2023-02-23T01:24:51.721Z,7.40
2023-02-23T01:29:55.753Z,9.30
2023-02-23T01:35:00.411Z,8.38
2023-02-23T01:40:15.800Z,7.88
2023-02-23T01:45:25.083Z,7.18
2023-02-23T01:50:37.473Z,9.13
2023-02-23T01:55:41.106Z,8.60
2023-02-23T02:00:49.089Z,10.65
2023-02-23T02:06:03.142Z,12.27
2023-02-23T02:11:26.008Z,11.73
2023-02-23T02:17:07.460Z,11.95
2023-02-23T02:22:44.035Z,13.02
2023-02-23T02:28:22.318Z,11.52
2023-02-23T02:34:02.004Z,12.35
2023-02-23T02:39:23.898Z,13.00
2023-02-23T02:44:36.276Z,12.95
2023-02-23T02:49:48.268Z,12.07
2023-02-23T02:54:54.736Z,12.63
2023-02-23T03:00:17.207Z,11.73
2023-02-23T03:05:42.642Z,11.25
2023-02-23T03:11:16.034Z,12.90
2023-02-23T03:16:49.879Z,13.02
2023-02-23T03:22:21.422Z,14.13
2023-02-23T03:27:53.375Z,14.88
2023-02-23T03:33:19.542Z,14.52
2023-02-23T03:38:48.565Z,15.05
2023-02-23T03:44:13.839Z,14.93
2023-02-23T03:49:37.329Z,12.20
2023-02-23T03:55:04.342Z,13.68
2023-02-23T04:00:34.090Z,14.95
2023-02-23T04:06:02.710Z,12.80
2023-02-23T04:11:42.953Z,13.02
2023-02-23T04:16:52.970Z,12.45
2023-02-23T04:22:06.472Z,12.00
2023-02-23T04:27:12.330Z,13.57
2023-02-23T04:32:21.083Z,12.73
2023-02-23T04:37:24.478Z,12.32
2023-02-23T04:42:30.780Z,11.07
2023-02-23T04:47:35.553Z,12.38
2023-02-23T04:52:46.219Z,11.05
2023-02-23T04:58:01.393Z,9.13
2023-02-23T05:03:08.459Z,9.32
2023-02-23T05:08:12.848Z,9.55
2023-02-23T05:13:22.375Z,9.82
2023-02-23T05:18:27.152Z,9.52
2023-02-23T05:23:37.706Z,8.82
2023-02-23T05:28:47.788Z,9.45
2023-02-23T05:33:53.812Z,8.82
2023-02-23T05:39:03.322Z,8.48
2023-02-23T05:44:06.757Z,7.75
2023-02-23T05:49:12.768Z,7.38
2023-02-23T05:54:17.361Z,6.13
2023-02-23T05:59:20.736Z,5.68
2023-02-23T06:04:25.458Z,6.45
2023-02-23T06:09:28.916Z,6.05
2023-02-23T06:14:33.502Z,5.50
2023-02-23T06:19:38.157Z,6.05
2023-02-23T06:24:43.408Z,4.55
2023-02-23T06:29:46.735Z,5.25
2023-02-23T06:34:55.310Z,4.20
2023-02-23T06:39:58.810Z,4.57
2023-02-23T06:45:02.133Z,3.90
2023-02-23T06:50:07.875Z,4.28
2023-02-23T06:55:13.179Z,3.97
2023-02-23T07:00:17.904Z,4.75
2023-02-23T07:05:22.685Z,6.90
2023-02-23T07:10:26.277Z,7.10
2023-02-23T07:15:29.687Z,11.77
2023-02-23T07:20:34.716Z,11.65
2023-02-23T07:25:38.113Z,9.68
2023-02-23T07:30:41.666Z,9.88
2023-02-23T07:35:53.282Z,9.25
2023-02-23T07:40:56.837Z,9.43
2023-02-23T07:46:07.451Z,9.10
2023-02-23T07:51:15.550Z,8.98
2023-02-23T07:56:19.977Z,8.32
2023-02-23T08:01:23.435Z,8.60
2023-02-23T08:06:28.309Z,4.97
2023-02-23T08:11:31.954Z,5.05
2023-02-23T08:16:37.287Z,5.72
2023-02-23T08:21:43.625Z,5.85
2023-02-23T08:26:50.060Z,5.22
2023-02-23T08:31:53.598Z,5.38
2023-02-23T08:37:02.436Z,4.50
2023-02-23T08:42:07.278Z,4.60
2023-02-23T08:47:10.870Z,10.38
2023-02-23T08:52:15.939Z,9.35
2023-02-23T08:57:19.568Z,9.43
2023-02-23T09:02:23.932Z,8.45
2023-02-23T09:07:29.130Z,9.02
2023-02-23T09:12:32.660Z,6.80
2023-02-23T09:17:35.970Z,5.45
2023-02-23T09:22:46.338Z,5.25
2023-02-23T09:27:51.223Z,5.32
2023-02-23T09:32:55.931Z,4.90
2023-02-23T09:38:00.581Z,4.97
2023-02-23T09:43:13.365Z,4.25
2023-02-23T09:48:19.242Z,3.78
2023-02-23T09:53:41.673Z,3.78
2023-02-23T09:58:45.614Z,3.95
2023-02-23T10:03:54.492Z,3.50
2023-02-23T10:09:10.251Z,2.78
2023-02-23T10:14:42.541Z,3.45
2023-02-23T10:19:52.144Z,3.60
2023-02-23T10:25:01.684Z,3.47
2023-02-23T10:30:14.284Z,4.07
2023-02-23T10:35:31.185Z,3.95
2023-02-23T10:40:36.488Z,7.78
2023-02-23T10:45:52.853Z,3.85
2023-02-23T10:51:02.984Z,4.13
2023-02-23T10:56:12.747Z,3.65
2023-02-23T11:01:41.855Z,3.60
2023-02-23T11:06:48.736Z,3.35
2023-02-23T11:12:00.747Z,3.72
2023-02-23T11:17:33.343Z,2.90
2023-02-23T11:22:39.037Z,4.03
2023-02-23T11:27:53.963Z,3.10
2023-02-23T11:33:02.610Z,2.20
2023-02-23T11:38:24.276Z,2.72
2023-02-23T11:43:30.666Z,2.40
2023-02-23T11:48:36.161Z,2.50
2023-02-23T11:54:16.897Z,2.65
2023-02-23T11:59:29.941Z,2.78
2023-02-23T12:04:37.478Z,2.40
2023-02-23T12:09:50.264Z,1.95
2023-02-23T12:15:03.629Z,2.60
2023-02-23T12:20:15.606Z,2.40
2023-02-23T12:25:24.647Z,2.47
2023-02-23T12:30:39.936Z,2.55
2023-02-23T12:35:58.101Z,2.03
2023-02-23T12:41:07.871Z,2.63
2023-02-23T12:46:21.777Z,2.55
2023-02-23T12:51:32.804Z,2.15
2023-02-23T12:56:55.090Z,2.25
2023-02-23T13:02:02.448Z,2.40
2023-02-23T13:07:15.915Z,2.65
2023-02-23T13:12:30.691Z,2.10
2023-02-23T13:17:46.526Z,2.78
2023-02-23T13:22:56.545Z,2.17
2023-02-23T13:28:02.997Z,2.88
2023-02-23T13:33:18.641Z,2.58
2023-02-23T13:38:28.260Z,2.85
2023-02-23T13:43:38.140Z,2.60
2023-02-23T13:48:57.448Z,2.65
2023-02-23T13:54:06.173Z,2.70
2023-02-23T13:59:16.725Z,2.58
2023-02-23T14:04:29.081Z,2.58
2023-02-23T14:09:36.767Z,3.10
2023-02-23T14:14:45.501Z,3.03
2023-02-23T14:20:09.804Z,2.50
2023-02-23T14:25:50.412Z,2.90
2023-02-23T14:31:02.246Z,2.70
2023-02-23T14:36:43.979Z,2.60
2023-02-23T14:41:51.860Z,2.20
2023-02-23T14:47:02.604Z,2.88
2023-02-23T14:52:15.978Z,2.90
2023-02-23T14:57:22.634Z,2.38
2023-02-23T15:02:28.411Z,2.53
2023-02-23T15:07:37.749Z,2.72
2023-02-23T15:12:41.290Z,2.70
2023-02-23T15:17:47.767Z,3.53
2023-02-23T15:23:00.161Z,3.35
2023-02-23T15:28:12.655Z,2.72
2023-02-23T15:33:23.385Z,2.30
2023-02-23T15:38:42.944Z,2.80
2023-02-23T15:43:47.235Z,3.87
2023-02-23T15:48:52.329Z,3.55
2023-02-23T15:53:57.165Z,3.60
2023-02-23T15:59:08.323Z,3.05
2023-02-23T16:04:18.835Z,2.90
2023-02-23T16:09:34.638Z,2.38
2023-02-23T16:14:47.446Z,3.35
2023-02-23T16:19:51.027Z,2.35
2023-02-23T16:25:02.320Z,2.67
2023-02-23T16:30:26.658Z,3.05
2023-02-23T16:35:37.773Z,3.13
2023-02-23T16:40:43.370Z,2.92
2023-02-23T16:45:51.656Z,2.55
2023-02-23T16:50:55.994Z,3.15
2023-02-23T16:56:06.521Z,3.30
2023-02-23T17:01:13.842Z,3.95
2023-02-23T17:06:17.144Z,3.90
2023-02-23T17:11:22.389Z,4.30
2023-02-23T17:16:31.803Z,3.67
2023-02-23T17:21:35.301Z,3.22
2023-02-23T17:26:49.084Z,3.15
2023-02-23T17:31:55.328Z,3.72
2023-02-23T17:36:59.240Z,2.80
2023-02-23T17:42:03.876Z,2.67
2023-02-23T17:47:07.093Z,3.38
2023-02-23T17:52:10.462Z,2.53
2023-02-23T17:57:19.779Z,3.15
2023-02-23T18:02:24.582Z,2.97
2023-02-23T18:07:29.803Z,3.58
2023-02-23T18:12:35.081Z,3.92
2023-02-23T18:17:38.322Z,6.60
2023-02-23T18:22:47.104Z,6.03
2023-02-23T18:28:02.512Z,6.90
2023-02-23T18:33:06.995Z,6.82
2023-02-23T18:38:17.486Z,5.68
2023-02-23T18:43:22.824Z,4.75
2023-02-23T18:48:25.977Z,5.00
2023-02-23T18:53:29.336Z,5.03
2023-02-23T18:58:51.802Z,4.85
2023-02-23T19:03:56.699Z,4.30
2023-02-23T19:09:11.049Z,3.80
2023-02-23T19:14:18.315Z,5.20
2023-02-23T19:19:21.680Z,4.50
2023-02-23T19:24:24.969Z,4.65
2023-02-23T19:29:29.837Z,4.40
2023-02-23T19:34:33.109Z,5.20
2023-02-23T19:39:36.914Z,5.28
2023-02-23T19:44:45.375Z,5.60
2023-02-23T19:49:48.629Z,5.05
2023-02-23T19:54:56.010Z,5.00
2023-02-23T20:00:00.796Z,5.43
2023-02-23T20:05:04.158Z,5.38
2023-02-23T20:10:10.326Z,5.30
2023-02-23T20:15:25.855Z,5.03
2023-02-23T20:20:29.296Z,5.07
2023-02-23T20:25:32.582Z,5.70
2023-02-23T20:30:37.686Z,6.38
2023-02-23T20:35:41.604Z,7.22
2023-02-23T20:40:45.263Z,6.20
2023-02-23T20:45:50.037Z,5.28
2023-02-23T20:50:55.706Z,5.40
2023-02-23T20:55:59.152Z,4.45
2023-02-23T21:01:06.590Z,3.78
2023-02-23T21:06:10.023Z,3.47
2023-02-23T21:11:13.200Z,3.50
2023-02-23T21:16:19.839Z,3.58
2023-02-23T21:21:24.186Z,4.82
2023-02-23T21:26:30.574Z,6.38
2023-02-23T21:31:35.335Z,6.80
2023-02-23T21:36:39.734Z,7.07
2023-02-23T21:41:43.078Z,6.82
2023-02-23T21:46:47.976Z,6.95
2023-02-23T21:51:52.566Z,7.47
2023-02-23T21:56:56.745Z,6.03
2023-02-23T22:02:01.389Z,6.25
2023-02-23T22:07:08.459Z,6.35
2023-02-23T22:12:11.989Z,7.13
2023-02-23T22:17:19.026Z,5.93
2023-02-23T22:22:22.513Z,5.82
2023-02-23T22:27:25.812Z,6.28
2023-02-23T22:32:32.957Z,6.18
2023-02-23T22:37:38.764Z,6.85
2023-02-23T22:42:43.495Z,5.68
2023-02-23T22:47:48.159Z,6.60
2023-02-23T22:52:51.403Z,6.07
2023-02-23T22:57:55.726Z,5.25
2023-02-23T23:03:00.366Z,5.10
2023-02-23T23:08:03.659Z,5.30
2023-02-23T23:13:07.242Z,6.07
2023-02-23T23:18:14.245Z,6.07
2023-02-23T23:23:18.278Z,6.07
2023-02-23T23:28:24.371Z,6.57
2023-02-23T23:33:30.828Z,6.05
2023-02-23T23:38:35.708Z,6.28
2023-02-23T23:43:39.294Z,5.70
2023-02-23T23:48:44.254Z,5.68
2023-02-23T23:53:47.968Z,5.90
2023-02-23T23:58:54.092Z,6.00
